Time;durP1;ratioP1;P1;durP2;ratioP2;P2;SDS_P1;SDS_P2;PMS_P1;PMS_P2;Temp;Humidity;BMP_temperature;BMP_pressure;BME280_temperature;BME280_humidity;BME280_pressure;Samples;Min_cycle;Max_cycle;Signal;HPM_P1;HPM_P2
2023/01/19 00:00:09;;;;;;;13.30;7.30;;;5.50;75.00;;;;;;5110892;28;20149;-64
2023/01/19 00:02:36;;;;;;;11.57;7.50;;;5.60;75.10;;;;;;5108844;28;20394;-64
2023/01/19 00:05:02;;;;;;;11.87;7.60;;;5.50;75.10;;;;;;5107652;28;20101;-64
2023/01/19 00:07:32;;;;;;;13.47;8.13;;;5.60;75.20;;;;;;5104802;28;20055;-64
2023/01/19 00:09:58;;;;;;;13.27;7.53;;;5.60;75.30;;;;;;5101587;28;20030;-64
2023/01/19 00:12:24;;;;;;;13.73;7.63;;;5.60;75.40;;;;;;5111286;28;20035;-63
2023/01/19 00:14:50;;;;;;;11.70;7.93;;;5.60;75.50;;;;;;5116570;28;20028;-64
2023/01/19 00:17:16;;;;;;;14.83;7.87;;;5.60;75.50;;;;;;5113678;28;20524;-65
2023/01/19 00:19:41;;;;;;;12.07;8.07;;;5.70;75.50;;;;;;5116483;28;20020;-65
2023/01/19 00:22:07;;;;;;;11.27;7.93;;;5.60;75.50;;;;;;5113480;28;20416;-65
2023/01/19 00:24:33;;;;;;;17.13;8.60;;;5.60;75.50;;;;;;5116334;28;20023;-65
2023/01/19 00:27:02;;;;;;;11.37;7.80;;;5.60;75.50;;;;;;5114120;28;20036;-65
2023/01/19 00:29:32;;;;;;;13.63;8.40;;;5.60;75.60;;;;;;5093113;28;20130;-65
2023/01/19 00:31:59;;;;;;;12.13;7.70;;;5.60;75.60;;;;;;5112885;28;20031;-65
2023/01/19 00:34:25;;;;;;;13.93;8.10;;;5.70;75.70;;;;;;5115840;28;20058;-65
2023/01/19 00:36:51;;;;;;;14.53;8.77;;;5.60;75.70;;;;;;5111304;28;20142;-65
2023/01/19 00:39:16;;;;;;;14.83;9.23;;;5.60;75.70;;;;;;5114783;28;20099;-65
2023/01/19 00:44:26;;;;;;;12.17;8.33;;;5.60;75.80;;;;;;5114697;28;20023;-65
2023/01/19 00:46:52;;;;;;;13.63;8.57;;;5.70;75.90;;;;;;5114481;28;20474;-65
2023/01/19 00:49:18;;;;;;;12.93;8.10;;;5.70;75.90;;;;;;5113822;28;20032;-65
2023/01/19 00:51:43;;;;;;;14.17;8.83;;;5.70;75.90;;;;;;5112391;28;20032;-64
2023/01/19 00:54:09;;;;;;;14.50;8.17;;;5.70;75.90;;;;;;5104969;28;20049;-65
2023/01/19 00:56:36;;;;;;;15.27;9.37;;;5.60;75.90;;;;;;5110213;28;20050;-64
2023/01/19 00:59:02;;;;;;;16.50;9.07;;;5.60;76.10;;;;;;5113367;28;20019;-65
2023/01/19 01:01:28;;;;;;;13.43;8.27;;;5.60;76.10;;;;;;5097416;28;20027;-65
2023/01/19 01:03:54;;;;;;;14.47;8.50;;;5.60;76.20;;;;;;5111870;28;20549;-64
2023/01/19 01:06:21;;;;;;;16.10;9.70;;;5.60;76.20;;;;;;5114089;28;20035;-65
2023/01/19 01:08:47;;;;;;;14.27;8.23;;;5.60;76.30;;;;;;5099580;28;20052;-65
2023/01/19 01:11:13;;;;;;;14.13;9.27;;;5.60;76.30;;;;;;5115166;28;20062;-65
2023/01/19 01:13:39;;;;;;;14.93;8.33;;;5.60;76.40;;;;;;5109394;28;20055;-65
2023/01/19 01:16:05;;;;;;;14.43;9.37;;;5.60;76.40;;;;;;5110281;28;20049;-65
2023/01/19 01:18:31;;;;;;;15.53;8.00;;;5.60;76.40;;;;;;5102891;28;20024;-65
2023/01/19 01:21:05;;;;;;;13.27;8.13;;;5.60;76.40;;;;;;5110480;28;20030;-65
2023/01/19 01:23:31;;;;;;;12.30;7.70;;;5.60;76.40;;;;;;5112997;28;20035;-64
2023/01/19 01:25:57;;;;;;;12.37;7.57;;;5.60;76.40;;;;;;5109969;28;20036;-67
2023/01/19 01:28:23;;;;;;;13.23;8.83;;;5.60;76.40;;;;;;5106433;28;20024;-65
2023/01/19 01:30:54;;;;;;;13.30;7.47;;;5.60;76.40;;;;;;5114894;28;20040;-65
2023/01/19 01:33:20;;;;;;;11.37;7.50;;;5.60;76.50;;;;;;5112025;28;20134;-65
2023/01/19 01:35:47;;;;;;;12.17;8.30;;;5.60;76.60;;;;;;5112759;28;20108;-65
2023/01/19 01:38:13;;;;;;;14.57;8.00;;;5.60;76.60;;;;;;5093387;28;20032;-65
2023/01/19 01:40:39;;;;;;;13.90;7.90;;;5.60;76.60;;;;;;5114933;28;20028;-65
2023/01/19 01:43:11;;;;;;;14.00;8.63;;;5.50;76.70;;;;;;5113618;28;20019;-65
2023/01/19 01:45:38;;;;;;;13.93;8.77;;;5.50;76.70;;;;;;5113600;28;20042;-65
2023/01/19 01:48:21;;;;;;;13.30;7.27;;;5.50;76.70;;;;;;5094107;28;20441;-65
2023/01/19 01:53:57;;;;;;;13.60;6.40;;;5.50;76.90;;;;;;5111927;28;20381;-64
2023/01/19 01:56:33;;;;;;;11.17;6.40;;;5.50;76.90;;;;;;5107460;28;20032;-65
2023/01/19 01:59:00;;;;;;;13.90;6.57;;;5.50;77.00;;;;;;5113140;28;20111;-65
2023/01/19 02:04:10;;;;;;;12.47;7.20;;;5.50;77.10;;;;;;5109471;28;20023;-68
2023/01/19 02:14:50;;;;;;;11.70;6.00;;;5.40;77.10;;;;;;5113202;28;20096;-65
2023/01/19 02:17:16;;;;;;;10.67;6.63;;;5.30;77.20;;;;;;5114389;28;20031;-64
2023/01/19 02:19:42;;;;;;;11.53;6.57;;;5.30;77.30;;;;;;5113188;28;20445;-65
2023/01/19 02:22:18;;;;;;;11.17;6.83;;;5.30;77.20;;;;;;5112518;28;20031;-64
2023/01/19 02:24:44;;;;;;;13.73;7.37;;;5.40;77.20;;;;;;5124442;28;20027;-65
2023/01/19 02:27:11;;;;;;;10.67;6.43;;;5.30;77.20;;;;;;5127409;28;20314;-65
2023/01/19 02:29:38;;;;;;;10.70;6.80;;;5.30;77.20;;;;;;5104639;28;20450;-65
2023/01/19 02:32:04;;;;;;;11.37;7.00;;;5.30;77.20;;;;;;5113256;28;20122;-65
2023/01/19 02:34:31;;;;;;;10.50;6.90;;;5.30;77.10;;;;;;5111441;28;20047;-65
2023/01/19 02:37:02;;;;;;;10.20;6.23;;;5.20;77.10;;;;;;5114274;28;20059;-65
2023/01/19 02:39:44;;;;;;;11.07;7.38;;;5.20;77.90;;;;;;5111830;28;20035;-65
2023/01/19 02:42:20;;;;;;;11.13;6.82;;;5.10;77.20;;;;;;5112056;28;20039;-65
2023/01/19 02:44:49;;;;;;;11.40;6.57;;;5.00;77.10;;;;;;5110012;28;20032;-65
2023/01/19 02:47:15;;;;;;;12.00;6.70;;;5.00;77.20;;;;;;5114299;28;20126;-65
2023/01/19 02:49:41;;;;;;;11.70;6.73;;;5.00;77.20;;;;;;5113686;28;20024;-65
2023/01/19 02:52:16;;;;;;;12.77;8.20;;;5.00;77.20;;;;;;5098844;28;20032;-65
2023/01/19 02:55:19;;;;;;;9.70;5.87;;;5.00;77.20;;;;;;5100963;28;20028;-65
2023/01/19 02:58:12;;;;;;;8.73;5.57;;;5.00;77.10;;;;;;5117716;28;20088;-65
2023/01/19 03:01:18;;;;;;;8.97;5.40;;;4.90;77.00;;;;;;5113818;28;20016;-66
2023/01/19 03:03:54;;;;;;;9.30;5.67;;;5.00;77.10;;;;;;5075322;28;20039;-65
2023/01/19 03:06:29;;;;;;;10.37;5.53;;;5.00;77.10;;;;;;5109361;28;20464;-65
2023/01/19 03:09:23;;;;;;;10.60;5.63;;;4.90;77.10;;;;;;5117382;28;20028;-65
2023/01/19 03:12:02;;;;;;;9.80;5.47;;;4.90;77.10;;;;;;5112276;28;20397;-65
2023/01/19 03:14:31;;;;;;;8.00;4.53;;;5.00;77.20;;;;;;5115435;28;20057;-65
2023/01/19 03:17:02;;;;;;;8.87;5.20;;;4.90;77.20;;;;;;5110854;28;20444;-65
2023/01/19 03:19:32;;;;;;;7.77;4.53;;;5.00;77.20;;;;;;5106003;28;20034;-65
2023/01/19 03:22:04;;;;;;;8.40;4.60;;;4.90;77.20;;;;;;5116682;28;20031;-65
2023/01/19 03:24:36;;;;;;;7.45;3.97;;;5.00;77.20;;;;;;5117522;28;20042;-65
2023/01/19 03:27:25;;;;;;;7.17;4.30;;;5.00;77.20;;;;;;5111465;28;20059;-65
2023/01/19 03:30:00;;;;;;;7.37;4.03;;;4.90;77.00;;;;;;5112999;28;20031;-65
2023/01/19 03:32:36;;;;;;;7.20;4.00;;;4.90;77.20;;;;;;5116186;28;20058;-65
2023/01/19 03:35:07;;;;;;;6.27;3.63;;;4.90;77.10;;;;;;5133741;27;20031;-65
2023/01/19 03:37:38;;;;;;;7.28;3.60;;;4.90;77.20;;;;;;5110566;28;20031;-65
2023/01/19 03:40:05;;;;;;;7.57;3.43;;;4.90;77.30;;;;;;5109266;28;20065;-65
2023/01/19 03:42:31;;;;;;;6.87;3.17;;;4.90;77.30;;;;;;5116149;28;20024;-65
2023/01/19 03:45:00;;;;;;;7.07;3.30;;;4.90;77.30;;;;;;5117310;28;20102;-65
2023/01/19 03:47:26;;;;;;;7.63;2.90;;;4.80;77.30;;;;;;5112840;28;20083;-65
2023/01/19 03:49:55;;;;;;;5.70;2.70;;;4.80;77.30;;;;;;5115438;28;20566;-65
2023/01/19 03:52:28;;;;;;;5.60;2.80;;;4.80;77.30;;;;;;5107676;28;20073;-65
2023/01/19 03:54:54;;;;;;;5.43;2.37;;;4.80;77.40;;;;;;5116110;28;20334;-65
2023/01/19 03:57:21;;;;;;;4.00;2.00;;;4.80;77.50;;;;;;5113069;28;20384;-66
2023/01/19 03:59:46;;;;;;;3.90;1.80;;;4.80;77.50;;;;;;5116218;28;20030;-65
2023/01/19 04:02:13;;;;;;;4.30;1.90;;;4.80;77.50;;;;;;5112597;28;20024;-65
2023/01/19 04:04:39;;;;;;;3.27;1.63;;;4.90;77.50;;;;;;5098824;28;20111;-65
2023/01/19 04:07:05;;;;;;;4.83;1.47;;;4.90;77.50;;;;;;5113931;28;20076;-65
2023/01/19 04:09:31;;;;;;;2.93;1.40;;;4.90;77.50;;;;;;5113312;28;20106;-65
2023/01/19 04:11:57;;;;;;;2.40;1.10;;;4.90;77.50;;;;;;5114963;28;20569;-65
2023/01/19 04:14:23;;;;;;;2.97;0.90;;;4.90;77.60;;;;;;5112607;28;20024;-65
2023/01/19 04:16:48;;;;;;;2.20;0.97;;;4.90;77.70;;;;;;5115169;28;20360;-65
2023/01/19 04:19:14;;;;;;;3.27;0.90;;;4.90;77.80;;;;;;5116499;28;20448;-65
2023/01/19 04:21:40;;;;;;;1.33;0.90;;;4.90;77.80;;;;;;5098080;28;20027;-65
2023/01/19 04:24:06;;;;;;;0.67;0.60;;;5.00;77.80;;;;;;5114498;28;20027;-65
2023/01/19 04:26:32;;;;;;;1.10;0.70;;;5.00;77.80;;;;;;5115044;28;20050;-65
2023/01/19 04:28:57;;;;;;;2.30;0.80;;;5.00;77.80;;;;;;5113961;28;20448;-65
2023/01/19 04:31:23;;;;;;;1.23;0.70;;;5.00;77.70;;;;;;5116080;28;20073;-65
2023/01/19 04:33:49;;;;;;;3.07;0.80;;;5.10;77.80;;;;;;5113075;28;20044;-65
2023/01/19 04:36:15;;;;;;;3.00;0.70;;;5.00;77.80;;;;;;5114807;28;20042;-65
2023/01/19 04:38:40;;;;;;;1.10;0.60;;;5.00;77.90;;;;;;5114936;28;20023;-65
2023/01/19 04:41:06;;;;;;;2.37;0.90;;;5.00;77.90;;;;;;5115850;28;20024;-65
2023/01/19 04:43:32;;;;;;;1.43;0.87;;;5.00;77.90;;;;;;5099310;28;20028;-65
2023/01/19 04:45:58;;;;;;;2.47;1.10;;;5.00;77.90;;;;;;5106886;28;20119;-65
2023/01/19 04:48:24;;;;;;;2.03;1.00;;;5.00;77.90;;;;;;5100033;28;20028;-65
2023/01/19 04:50:51;;;;;;;3.77;1.77;;;5.00;78.00;;;;;;5094600;28;20036;-65
2023/01/19 04:53:17;;;;;;;2.53;1.30;;;5.00;78.00;;;;;;5122774;27;20368;-65
2023/01/19 04:55:43;;;;;;;3.10;1.40;;;5.00;78.00;;;;;;5102855;28;20023;-65
2023/01/19 04:58:08;;;;;;;3.33;1.50;;;5.00;78.00;;;;;;5102925;28;20426;-65
2023/01/19 05:00:35;;;;;;;3.40;1.70;;;5.00;78.00;;;;;;5097802;28;20020;-65
2023/01/19 05:03:01;;;;;;;2.90;1.33;;;5.10;78.10;;;;;;5115443;28;20114;-65
2023/01/19 05:05:27;;;;;;;6.77;1.43;;;5.10;78.20;;;;;;5106694;28;20016;-65
2023/01/19 05:07:53;;;;;;;4.13;1.60;;;5.00;78.10;;;;;;5099837;28;20031;-65
2023/01/19 05:10:19;;;;;;;3.43;1.57;;;5.00;78.20;;;;;;5115568;28;20039;-65
2023/01/19 05:12:45;;;;;;;3.50;1.47;;;5.00;78.20;;;;;;5113919;28;20103;-65
2023/01/19 05:15:11;;;;;;;3.63;1.73;;;5.10;78.30;;;;;;5112722;28;20020;-65
2023/01/19 05:17:36;;;;;;;3.47;1.63;;;5.00;78.20;;;;;;5110191;28;20366;-64
2023/01/19 05:20:03;;;;;;;3.10;1.50;;;5.10;78.20;;;;;;5113891;28;20034;-65
2023/01/19 05:22:29;;;;;;;4.27;1.73;;;5.10;78.20;;;;;;5115398;28;20485;-65
2023/01/19 05:24:54;;;;;;;2.77;1.50;;;5.10;78.20;;;;;;5105485;28;20067;-65
2023/01/19 05:27:20;;;;;;;3.00;1.30;;;5.10;78.20;;;;;;5112564;28;20032;-65
2023/01/19 05:29:46;;;;;;;3.10;1.53;;;5.10;78.20;;;;;;5100815;28;20024;-64
2023/01/19 05:32:12;;;;;;;3.23;1.50;;;5.10;78.30;;;;;;5103661;28;20058;-65
2023/01/19 05:34:38;;;;;;;2.00;1.20;;;5.10;78.30;;;;;;5106585;28;20435;-65
2023/01/19 05:37:04;;;;;;;3.57;1.30;;;5.10;78.40;;;;;;5111006;28;20028;-64
2023/01/19 05:39:30;;;;;;;4.10;1.60;;;5.10;78.40;;;;;;5114116;27;20100;-64
2023/01/19 05:41:56;;;;;;;2.27;1.17;;;5.10;78.40;;;;;;5113223;28;20032;-65
2023/01/19 05:44:21;;;;;;;4.57;1.00;;;5.10;78.40;;;;;;5113749;28;20027;-65
2023/01/19 05:46:47;;;;;;;4.87;1.40;;;5.10;78.40;;;;;;5111001;28;20122;-65
2023/01/19 05:49:13;;;;;;;3.30;1.30;;;5.10;78.40;;;;;;5094049;28;20020;-64
2023/01/19 05:51:44;;;;;;;2.87;0.90;;;5.10;78.40;;;;;;5108093;28;20038;-65
2023/01/19 05:54:12;;;;;;;3.57;1.00;;;5.10;78.40;;;;;;5114178;28;20388;-65
2023/01/19 05:56:38;;;;;;;5.33;1.20;;;5.10;78.40;;;;;;5112702;28;20070;-65
2023/01/19 05:59:04;;;;;;;2.60;1.00;;;5.10;78.40;;;;;;5096923;28;20081;-64
2023/01/19 06:01:30;;;;;;;3.50;1.43;;;5.20;78.40;;;;;;5110295;28;20024;-63
2023/01/19 06:03:56;;;;;;;4.50;1.47;;;5.10;78.40;;;;;;5094974;28;20167;-63
2023/01/19 06:06:22;;;;;;;2.13;1.10;;;5.20;78.50;;;;;;5109415;27;20028;-63
2023/01/19 06:08:48;;;;;;;3.73;1.70;;;5.20;78.50;;;;;;5114307;28;20028;-63
2023/01/19 06:11:13;;;;;;;4.60;1.27;;;5.20;78.40;;;;;;5102469;28;20035;-63
2023/01/19 06:13:39;;;;;;;3.53;1.37;;;5.20;78.40;;;;;;5113141;28;20023;-64
2023/01/19 06:16:06;;;;;;;3.23;1.37;;;5.20;78.40;;;;;;5095581;28;20042;-64
2023/01/19 06:18:32;;;;;;;3.73;1.40;;;5.20;78.40;;;;;;5102334;28;20043;-64
2023/01/19 06:21:01;;;;;;;6.20;1.27;;;5.20;78.40;;;;;;5094575;28;20039;-64
2023/01/19 06:23:30;;;;;;;6.07;1.40;;;5.20;78.50;;;;;;5108944;28;20029;-63
2023/01/19 06:25:56;;;;;;;3.27;1.47;;;5.20;78.50;;;;;;5093490;28;21182;-63
2023/01/19 06:28:22;;;;;;;4.33;1.37;;;5.20;78.60;;;;;;5110563;28;20031;-63
2023/01/19 06:30:49;;;;;;;5.17;1.57;;;5.20;78.50;;;;;;5114378;28;20050;-64
2023/01/19 06:33:16;;;;;;;18.40;2.37;;;5.20;78.50;;;;;;5108120;28;20116;-65
2023/01/19 06:35:43;;;;;;;9.67;1.63;;;5.20;78.60;;;;;;5114280;28;20023;-65
2023/01/19 06:38:08;;;;;;;6.10;1.83;;;5.30;78.60;;;;;;5096141;28;20028;-66
2023/01/19 06:40:34;;;;;;;6.30;1.60;;;5.30;78.60;;;;;;5097599;28;20365;-66
2023/01/19 06:43:00;;;;;;;9.13;1.80;;;5.30;78.60;;;;;;5098691;28;20031;-66
2023/01/19 06:45:26;;;;;;;4.80;1.27;;;5.40;78.60;;;;;;5108545;28;20019;-66
2023/01/19 06:47:52;;;;;;;6.30;1.77;;;5.40;78.60;;;;;;5107126;28;20032;-66
2023/01/19 06:50:17;;;;;;;5.90;1.57;;;5.40;78.60;;;;;;5112956;28;20027;-65
2023/01/19 06:52:43;;;;;;;5.83;1.57;;;5.50;78.50;;;;;;5111961;28;20440;-65
2023/01/19 06:55:10;;;;;;;2.90;1.00;;;5.50;78.50;;;;;;5112519;28;20352;-64
2023/01/19 06:57:37;;;;;;;6.97;1.60;;;5.50;78.50;;;;;;5092312;28;20468;-64
2023/01/19 07:00:06;;;;;;;9.03;1.30;;;5.50;78.50;;;;;;5094707;28;20059;-64
2023/01/19 07:02:41;;;;;;;5.33;1.87;;;5.50;78.60;;;;;;5112425;28;20432;-64
2023/01/19 07:05:08;;;;;;;6.03;1.73;;;5.40;78.60;;;;;;5108888;28;20028;-64
2023/01/19 07:07:34;;;;;;;6.40;1.80;;;5.40;78.60;;;;;;5096081;28;20031;-63
2023/01/19 07:10:00;;;;;;;6.37;2.20;;;5.40;78.70;;;;;;5110170;28;20062;-64
2023/01/19 07:12:26;;;;;;;4.77;1.27;;;5.40;78.60;;;;;;5113754;28;20066;-65
2023/01/19 07:14:52;;;;;;;3.97;1.50;;;5.40;78.70;;;;;;5105639;28;20435;-64
2023/01/19 07:17:18;;;;;;;8.03;2.30;;;5.40;78.70;;;;;;5112381;28;20024;-65
2023/01/19 07:19:45;;;;;;;5.57;1.67;;;5.40;78.60;;;;;;5108273;28;20118;-65
2023/01/19 07:22:11;;;;;;;4.27;1.60;;;5.40;78.70;;;;;;5112585;28;20040;-64
2023/01/19 07:24:36;;;;;;;7.47;1.70;;;5.40;78.70;;;;;;5110995;28;20024;-67
2023/01/19 07:27:04;;;;;;;6.20;1.80;;;5.40;78.70;;;;;;5108412;28;20360;-69
2023/01/19 07:29:29;;;;;;;7.20;2.00;;;5.40;78.70;;;;;;5113000;28;20023;-68
2023/01/19 07:31:55;;;;;;;6.97;2.20;;;5.40;78.70;;;;;;5111407;28;20371;-69
2023/01/19 07:34:22;;;;;;;6.40;2.80;;;5.40;79.40;;;;;;5108387;28;20503;-66
2023/01/19 07:36:48;;;;;;;9.93;2.40;;;5.40;78.90;;;;;;5097259;28;20031;-65
2023/01/19 07:39:14;;;;;;;6.23;1.67;;;5.40;79.00;;;;;;5114075;28;20515;-65
2023/01/19 07:41:40;;;;;;;9.40;2.07;;;5.40;79.00;;;;;;5113714;28;20030;-65
2023/01/19 07:44:07;;;;;;;8.13;2.57;;;5.40;79.00;;;;;;5100265;28;20024;-65
2023/01/19 07:46:33;;;;;;;6.67;2.30;;;5.40;79.00;;;;;;5100564;28;20019;-65
2023/01/19 07:48:59;;;;;;;5.30;2.17;;;5.40;79.00;;;;;;5104118;28;20021;-65
2023/01/19 07:51:26;;;;;;;5.83;2.03;;;5.40;78.90;;;;;;5115673;28;20024;-64
2023/01/19 07:53:52;;;;;;;6.63;2.37;;;5.40;78.90;;;;;;5105771;28;20111;-65
2023/01/19 07:56:18;;;;;;;7.70;2.47;;;5.40;78.90;;;;;;5095633;28;20119;-66
2023/01/19 07:58:43;;;;;;;8.60;2.60;;;5.40;79.00;;;;;;5102843;28;20023;-67
2023/01/19 08:01:11;;;;;;;5.70;2.07;;;5.40;79.00;;;;;;5095724;28;20024;-67
2023/01/19 08:03:38;;;;;;;5.27;2.00;;;5.40;79.00;;;;;;5108100;28;20396;-67
2023/01/19 08:06:04;;;;;;;7.77;2.30;;;5.40;79.00;;;;;;5109659;28;20356;-66
2023/01/19 08:08:32;;;;;;;6.70;2.37;;;5.40;79.00;;;;;;5114497;28;20032;-65
2023/01/19 08:10:58;;;;;;;7.20;2.83;;;5.40;79.00;;;;;;5117264;28;20088;-67
2023/01/19 08:13:25;;;;;;;11.63;2.60;;;5.40;79.00;;;;;;5111347;28;20340;-67
2023/01/19 08:15:52;;;;;;;7.27;2.40;;;5.40;79.00;;;;;;5115702;28;20044;-66
2023/01/19 08:18:18;;;;;;;7.03;2.47;;;5.40;79.00;;;;;;5105604;28;20368;-66
2023/01/19 08:20:44;;;;;;;6.77;2.53;;;5.40;79.00;;;;;;5096366;28;20065;-67
2023/01/19 08:23:11;;;;;;;7.43;2.50;;;5.40;79.00;;;;;;5104176;28;20471;-66
2023/01/19 08:25:43;;;;;;;6.20;2.33;;;5.40;79.10;;;;;;5112304;28;20032;-66
2023/01/19 08:28:14;;;;;;;10.37;3.23;;;5.40;79.10;;;;;;5098416;28;20061;-66
2023/01/19 08:30:42;;;;;;;7.40;3.27;;;5.40;79.00;;;;;;5095238;28;20038;-66
2023/01/19 08:33:08;;;;;;;9.47;4.17;;;5.40;79.00;;;;;;5096906;28;20046;-66
2023/01/19 08:35:40;;;;;;;11.20;4.30;;;5.40;79.10;;;;;;5115305;28;20098;-67
2023/01/19 08:38:06;;;;;;;;;;;5.40;79.10;;;;;;5102995;28;20463;-67
2023/01/19 08:40:34;;;;;;;9.13;3.83;;;5.40;79.00;;;;;;5115460;28;19911;-67
2023/01/19 08:43:06;;;;;;;10.23;3.10;;;5.40;79.10;;;;;;5115230;28;20050;-67
2023/01/19 08:45:33;;;;;;;;;;;5.40;79.10;;;;;;5115606;28;20485;-67
2023/01/19 08:47:59;;;;;;;9.97;3.20;;;5.30;78.90;;;;;;5109343;28;19953;-65
2023/01/19 08:50:30;;;;;;;6.43;2.77;;;5.30;79.00;;;;;;5102949;28;20035;-67
2023/01/19 08:52:56;;;;;;;8.27;3.13;;;5.30;79.10;;;;;;5107342;28;20447;-65
2023/01/19 08:55:23;;;;;;;8.63;3.30;;;5.30;79.20;;;;;;5102375;28;20077;-66
2023/01/19 08:57:53;;;;;;;8.67;3.63;;;5.30;79.20;;;;;;5110843;28;20024;-67
2023/01/19 09:00:20;;;;;;;7.17;3.27;;;5.30;79.30;;;;;;5104389;28;20020;-67
2023/01/19 09:02:46;;;;;;;11.07;3.60;;;5.30;79.20;;;;;;5109323;28;20032;-68
2023/01/19 09:05:13;;;;;;;7.83;3.67;;;5.40;79.30;;;;;;5113177;28;20084;-66
2023/01/19 09:07:40;;;;;;;9.20;3.47;;;5.50;79.30;;;;;;5106434;28;20035;-67
2023/01/19 09:10:07;;;;;;;8.90;3.67;;;5.50;79.20;;;;;;5106652;28;20063;-68
2023/01/19 09:12:34;;;;;;;8.47;3.90;;;5.70;79.10;;;;;;5115523;28;20114;-67
2023/01/19 09:15:00;;;;;;;8.63;3.70;;;5.70;78.90;;;;;;5115499;28;20074;-67
2023/01/19 09:17:26;;;;;;;9.30;3.50;;;5.70;78.90;;;;;;5113209;28;20023;-67
2023/01/19 09:19:51;;;;;;;9.30;4.00;;;5.80;78.90;;;;;;5115176;28;20092;-68
2023/01/19 09:22:17;;;;;;;7.70;3.80;;;5.90;78.70;;;;;;5124464;27;20091;-67
2023/01/19 09:24:43;;;;;;;9.23;4.37;;;6.10;78.50;;;;;;5121396;27;20035;-67
2023/01/19 09:27:08;;;;;;;14.57;4.47;;;6.20;78.30;;;;;;5115347;28;20394;-67
2023/01/19 09:29:35;;;;;;;9.97;4.30;;;6.40;78.10;;;;;;5115326;27;20038;-67
2023/01/19 09:32:01;;;;;;;12.37;5.20;;;6.50;78.00;;;;;;5115091;28;20091;-68
2023/01/19 09:34:27;;;;;;;11.10;4.30;;;6.60;77.70;;;;;;5115016;28;20452;-67
2023/01/19 09:36:53;;;;;;;11.60;4.43;;;6.70;77.60;;;;;;5128386;27;20027;-68
2023/01/19 09:39:20;;;;;;;9.87;4.43;;;6.60;77.50;;;;;;5106210;27;20024;-67
2023/01/19 09:41:55;;;;;;;12.47;5.13;;;6.70;77.60;;;;;;5120964;27;20211;-67
2023/01/19 09:44:33;;;;;;;11.00;4.50;;;6.70;77.60;;;;;;5113692;28;20458;-68
2023/01/19 09:47:15;;;;;;;9.30;4.00;;;6.80;77.40;;;;;;5113566;28;20040;-67
2023/01/19 09:50:02;;;;;;;10.33;4.73;;;7.00;77.20;;;;;;5093748;28;20055;-67
2023/01/19 09:52:31;;;;;;;14.43;4.33;;;7.10;77.00;;;;;;5107741;28;20031;-66
2023/01/19 09:54:57;;;;;;;9.83;4.33;;;7.20;76.80;;;;;;5113863;28;20031;-67
2023/01/19 09:57:26;;;;;;;12.30;4.70;;;7.20;76.80;;;;;;5112835;28;20456;-69
2023/01/19 09:59:56;;;;;;;16.90;4.40;;;7.20;76.80;;;;;;5113476;28;20432;-67
2023/01/19 10:02:39;;;;;;;10.47;3.87;;;7.20;76.80;;;;;;5113712;28;20043;-66
2023/01/19 10:05:24;;;;;;;12.10;3.67;;;7.20;76.80;;;;;;5115174;28;20262;-66
2023/01/19 10:08:17;;;;;;;12.13;3.53;;;7.20;76.80;;;;;;5114653;28;20078;-68
2023/01/19 10:10:52;;;;;;;11.33;3.50;;;7.30;76.80;;;;;;5113783;28;20070;-67
2023/01/19 10:13:18;;;;;;;10.30;3.40;;;7.30;76.60;;;;;;5113825;28;20375;-66
2023/01/19 10:15:52;;;;;;;9.83;2.90;;;7.40;76.60;;;;;;5113671;28;20032;-68
2023/01/19 10:18:33;;;;;;;11.87;3.50;;;7.30;76.50;;;;;;5113678;28;20039;-68
2023/01/19 10:21:10;;;;;;;6.93;2.73;;;7.30;76.60;;;;;;5113816;28;20528;-70
2023/01/19 10:23:47;;;;;;;11.67;2.90;;;7.30;76.70;;;;;;5113412;28;20483;-69
2023/01/19 10:26:41;;;;;;;8.23;2.40;;;7.30;76.80;;;;;;5114629;28;20122;-69
2023/01/19 10:29:18;;;;;;;6.67;2.07;;;7.30;76.70;;;;;;5108983;28;20024;-69
2023/01/19 10:31:51;;;;;;;7.40;2.47;;;7.50;76.60;;;;;;5103337;28;20032;-70
2023/01/19 10:34:22;;;;;;;5.60;1.67;;;7.80;76.10;;;;;;5090927;28;20524;-70
2023/01/19 10:36:58;;;;;;;11.40;2.53;;;8.10;75.50;;;;;;5092902;28;20047;-70
2023/01/19 10:39:31;;;;;;;10.38;1.90;;;8.50;74.80;;;;;;5099038;28;20015;-70
2023/01/19 10:42:01;;;;;;;8.87;2.40;;;8.70;74.20;;;;;;5101522;28;20035;-70
2023/01/19 10:44:33;;;;;;;6.60;2.00;;;8.90;73.80;;;;;;5110893;28;20031;-70
2023/01/19 10:47:01;;;;;;;6.65;1.77;;;9.10;73.50;;;;;;5100934;28;20036;-71
2023/01/19 10:49:38;;;;;;;11.90;2.27;;;9.20;73.10;;;;;;5081031;28;20110;-70
2023/01/19 10:52:49;;;;;;;6.67;2.30;;;9.30;72.90;;;;;;5095951;28;20021;-71
2023/01/19 10:55:55;;;;;;;6.87;1.77;;;9.30;72.60;;;;;;5083653;28;20049;-70
2023/01/19 10:58:53;;;;;;;10.38;2.63;;;9.40;72.50;;;;;;5051735;28;20074;-70
2023/01/19 11:02:07;;;;;;;10.18;3.58;;;9.40;72.40;;;;;;4995823;28;20045;-71
2023/01/19 11:04:36;;;;;;;7.07;2.70;;;9.50;72.40;;;;;;4969374;28;20042;-70
2023/01/19 11:07:18;;;;;;;9.60;3.40;;;9.50;72.30;;;;;;4989076;28;20039;-69
2023/01/19 11:09:48;;;;;;;12.20;3.78;;;9.50;72.00;;;;;;4989409;28;20058;-69
2023/01/19 11:12:19;;;;;;;10.32;3.95;;;9.50;72.00;;;;;;4972859;28;20431;-68
2023/01/19 11:14:46;;;;;;;6.60;3.20;;;9.60;71.80;;;;;;4958569;28;20054;-69
2023/01/19 11:17:24;;;;;;;10.90;4.07;;;9.50;71.80;;;;;;4989173;28;20468;-70
2023/01/19 11:19:59;;;;;;;15.57;4.18;;;9.50;71.70;;;;;;4971387;28;20118;-69
2023/01/19 11:22:31;;;;;;;10.05;4.05;;;9.60;71.50;;;;;;4974845;28;20189;-70
2023/01/19 11:25:02;;;;;;;9.52;3.70;;;9.60;71.40;;;;;;4968825;28;20458;-70
2023/01/19 11:27:31;;;;;;;12.33;4.60;;;9.50;71.30;;;;;;4971346;28;20506;-71
2023/01/19 11:30:19;;;;;;;8.57;3.72;;;9.50;71.40;;;;;;5005768;28;20056;-71
2023/01/19 11:32:46;;;;;;;11.10;3.90;;;9.50;71.40;;;;;;5016870;28;20104;-70
2023/01/19 11:35:38;;;;;;;12.85;3.95;;;9.40;71.40;;;;;;5040314;28;20180;-70
2023/01/19 11:38:11;;;;;;;9.57;3.67;;;9.40;71.40;;;;;;5046873;28;20059;-72
2023/01/19 11:40:38;;;;;;;11.52;4.65;;;9.30;71.50;;;;;;5041658;28;20032;-70
2023/01/19 11:43:04;;;;;;;12.32;3.83;;;9.20;71.50;;;;;;5064969;28;20033;-71
2023/01/19 11:45:33;;;;;;;12.70;4.13;;;9.20;71.60;;;;;;5061601;28;20331;-71
2023/01/19 11:48:03;;;;;;;11.82;4.57;;;9.20;71.70;;;;;;5047906;28;20354;-69
2023/01/19 11:50:33;;;;;;;12.27;5.32;;;9.10;71.70;;;;;;5048862;28;20122;-69
2023/01/19 11:53:23;;;;;;;10.20;4.28;;;9.00;71.70;;;;;;5054803;28;20032;-69
2023/01/19 11:56:06;;;;;;;12.88;4.85;;;8.90;71.70;;;;;;5057545;28;20024;-70
2023/01/19 11:58:45;;;;;;;15.20;5.55;;;8.80;72.00;;;;;;5060867;28;20039;-70
2023/01/19 12:01:28;;;;;;;13.60;6.43;;;8.70;72.10;;;;;;5088028;27;20116;-69
2023/01/19 12:04:01;;;;;;;13.02;5.82;;;8.70;72.20;;;;;;5110629;27;20079;-69
2023/01/19 12:06:36;;;;;;;13.88;6.00;;;8.60;72.30;;;;;;5114898;27;20107;-69
2023/01/19 12:09:16;;;;;;;16.97;6.10;;;8.60;72.30;;;;;;5111169;27;20024;-69
2023/01/19 12:11:47;;;;;;;13.15;6.75;;;8.60;72.40;;;;;;5115009;27;20027;-69
2023/01/19 12:14:22;;;;;;;16.38;6.35;;;8.60;72.30;;;;;;5112423;27;20421;-69
2023/01/19 12:16:52;;;;;;;14.27;7.03;;;8.50;72.40;;;;;;5117497;27;20058;-69
2023/01/19 12:19:23;;;;;;;14.30;7.28;;;8.40;72.50;;;;;;5114716;27;20035;-70
2023/01/19 12:21:51;;;;;;;16.25;7.80;;;8.40;72.70;;;;;;5098643;28;20399;-69
2023/01/19 12:24:27;;;;;;;15.10;7.83;;;8.40;72.70;;;;;;5098536;28;20016;-69
2023/01/19 12:26:56;;;;;;;13.73;7.88;;;8.30;72.70;;;;;;5116506;28;20031;-69
2023/01/19 12:29:26;;;;;;;15.68;7.93;;;8.30;72.80;;;;;;5113438;27;20047;-70
2023/01/19 12:32:15;;;;;;;13.32;6.93;;;8.30;72.90;;;;;;5107731;28;20027;-70
2023/01/19 12:34:50;;;;;;;13.18;6.07;;;8.20;72.80;;;;;;5102231;27;20053;-70
2023/01/19 12:37:37;;;;;;;13.05;6.13;;;8.20;72.80;;;;;;5113075;27;20099;-70
2023/01/19 12:40:25;;;;;;;11.75;5.93;;;8.20;72.80;;;;;;5120525;27;20031;-70
2023/01/19 12:43:00;;;;;;;11.05;5.80;;;8.20;72.80;;;;;;5102987;27;20040;-69
2023/01/19 12:45:34;;;;;;;14.52;5.88;;;8.20;72.80;;;;;;5098520;28;20345;-70
2023/01/19 12:48:01;;;;;;;12.83;5.80;;;8.20;72.90;;;;;;5109749;27;20088;-69
2023/01/19 12:50:32;;;;;;;9.90;5.07;;;8.20;72.90;;;;;;5096762;28;20031;-69
2023/01/19 12:53:01;;;;;;;14.97;5.10;;;8.10;72.80;;;;;;5113257;27;20050;-69
2023/01/19 12:55:36;;;;;;;12.82;4.53;;;8.10;72.70;;;;;;5115185;27;20024;-69
2023/01/19 12:58:22;;;;;;;13.03;4.87;;;8.10;72.70;;;;;;5109305;27;20024;-69
2023/01/19 13:01:09;;;;;;;13.33;4.60;;;8.10;72.70;;;;;;5106889;27;20114;-70
2023/01/19 13:03:45;;;;;;;11.45;4.38;;;8.10;72.70;;;;;;5121505;27;20065;-69
2023/01/19 13:06:11;;;;;;;12.48;4.40;;;8.10;72.70;;;;;;5105436;27;20051;-68
2023/01/19 13:08:58;;;;;;;13.82;4.75;;;8.00;72.70;;;;;;5108769;27;20647;-68
2023/01/19 13:11:24;;;;;;;12.47;5.53;;;8.00;72.80;;;;;;5100401;27;20395;-69
2023/01/19 13:13:59;;;;;;;15.70;4.93;;;7.90;72.80;;;;;;5121421;27;20027;-71
2023/01/19 13:16:26;;;;;;;9.65;4.45;;;7.90;73.40;;;;;;5107257;27;20028;-68
2023/01/19 13:18:54;;;;;;;10.70;4.40;;;7.90;72.80;;;;;;5109526;27;20167;-69
2023/01/19 13:21:38;;;;;;;9.43;4.40;;;7.90;72.80;;;;;;5087911;28;20028;-69
2023/01/19 13:24:13;;;;;;;10.83;4.10;;;7.90;73.50;;;;;;5101166;27;20031;-68